createdAt,value
2022-09-18T00:00:17.719Z,14.70
2022-09-18T00:02:47.802Z,14.70
2022-09-18T00:05:18.326Z,14.70
2022-09-18T00:07:48.441Z,14.70
2022-09-18T00:10:18.829Z,14.80
2022-09-18T00:12:48.872Z,14.70
2022-09-18T00:15:21.856Z,14.70
2022-09-18T00:17:51.940Z,14.70
2022-09-18T00:20:22.160Z,14.80
2022-09-18T00:22:52.284Z,14.70
2022-09-18T00:25:22.860Z,14.70
2022-09-18T00:27:53.285Z,14.70
2022-09-18T00:30:26.496Z,14.80
2022-09-18T00:32:56.819Z,14.80
2022-09-18T00:35:27.313Z,14.80
2022-09-18T00:37:57.677Z,15.20
2022-09-18T00:40:27.991Z,14.70
2022-09-18T00:42:58.833Z,14.70
2022-09-18T00:45:31.633Z,14.70
2022-09-18T00:48:01.856Z,14.80
2022-09-18T00:50:32.233Z,14.80
2022-09-18T00:53:06.105Z,14.70
2022-09-18T00:55:39.903Z,14.70
2022-09-18T00:58:10.466Z,14.70
2022-09-18T01:00:43.485Z,14.70
2022-09-18T01:03:13.660Z,14.70
2022-09-18T01:06:03.385Z,14.80
2022-09-18T01:08:44.549Z,14.80
2022-09-18T01:11:36.805Z,14.80
2022-09-18T01:14:24.108Z,14.70
2022-09-18T01:17:05.013Z,14.70
2022-09-18T01:20:04.187Z,14.60
2022-09-18T01:22:46.930Z,14.70
2022-09-18T01:25:26.380Z,14.70
2022-09-18T01:28:16.924Z,14.60
2022-09-18T01:30:48.666Z,14.70
2022-09-18T01:33:23.959Z,14.80
2022-09-18T01:35:58.628Z,14.70
2022-09-18T01:38:32.629Z,14.70
2022-09-18T01:41:06.382Z,14.70
2022-09-18T01:43:41.585Z,14.60
2022-09-18T01:46:15.626Z,14.50
2022-09-18T01:48:51.085Z,14.50
2022-09-18T01:51:26.568Z,14.50
2022-09-18T01:54:00.994Z,14.60
2022-09-18T01:56:37.040Z,14.50
2022-09-18T01:59:14.410Z,14.50
2022-09-18T02:01:47.726Z,14.50
2022-09-18T02:04:22.284Z,14.40
2022-09-18T02:07:00.506Z,14.40
2022-09-18T02:09:31.800Z,14.40
2022-09-18T02:12:03.733Z,14.50
2022-09-18T02:14:41.184Z,14.40
2022-09-18T02:17:19.613Z,14.50
2022-09-18T02:19:54.771Z,14.50
2022-09-18T02:22:27.893Z,14.50
2022-09-18T02:25:00.037Z,14.60
2022-09-18T02:27:32.879Z,14.60
2022-09-18T02:30:09.774Z,14.60
2022-09-18T02:32:42.053Z,14.60
2022-09-18T02:35:14.367Z,14.60
2022-09-18T02:37:57.297Z,14.60
2022-09-18T02:40:38.437Z,14.60
2022-09-18T02:43:30.130Z,14.60
2022-09-18T02:46:10.783Z,14.60
2022-09-18T02:49:04.381Z,14.50
2022-09-18T02:51:40.415Z,14.40
2022-09-18T02:54:14.925Z,14.50
2022-09-18T02:56:50.324Z,14.50
2022-09-18T02:59:24.437Z,14.50
2022-09-18T03:02:00.510Z,14.60
2022-09-18T03:04:31.678Z,14.60
2022-09-18T03:07:01.961Z,14.60
2022-09-18T03:09:32.956Z,14.50
2022-09-18T03:12:03.355Z,14.70
2022-09-18T03:14:33.570Z,14.70
2022-09-18T03:17:06.774Z,14.70
2022-09-18T03:19:36.841Z,14.80
2022-09-18T03:22:07.028Z,14.70
2022-09-18T03:24:37.037Z,14.60
2022-09-18T03:27:08.085Z,14.60
2022-09-18T03:29:38.352Z,14.70
2022-09-18T03:32:11.928Z,14.80
2022-09-18T03:34:42.360Z,14.70
2022-09-18T03:37:12.480Z,14.80
2022-09-18T03:39:42.638Z,14.70
2022-09-18T03:42:12.876Z,14.70
2022-09-18T03:44:42.963Z,14.70
2022-09-18T03:47:16.036Z,14.60
2022-09-18T03:49:46.052Z,14.60
2022-09-18T03:52:16.146Z,14.60
2022-09-18T03:54:46.118Z,14.60
2022-09-18T03:57:16.314Z,14.50
2022-09-18T03:59:46.302Z,14.50
2022-09-18T04:02:19.067Z,14.50
2022-09-18T04:04:49.238Z,14.50
2022-09-18T04:07:19.353Z,14.60
2022-09-18T04:09:49.620Z,14.50
2022-09-18T04:12:20.588Z,14.60
2022-09-18T04:14:50.908Z,14.60
2022-09-18T04:17:23.927Z,14.60
2022-09-18T04:19:54.932Z,14.60
2022-09-18T04:22:24.997Z,14.70
2022-09-18T04:24:55.035Z,14.60
2022-09-18T04:27:25.197Z,14.60
2022-09-18T04:29:55.209Z,14.50
2022-09-18T04:32:28.070Z,14.50
2022-09-18T04:34:58.073Z,14.50
2022-09-18T04:37:28.182Z,14.50
2022-09-18T04:39:58.278Z,14.50
2022-09-18T04:42:28.499Z,14.50
2022-09-18T04:44:58.595Z,14.40
2022-09-18T04:47:31.831Z,14.40
2022-09-18T04:50:02.020Z,14.30
2022-09-18T04:52:33.143Z,14.30
2022-09-18T04:55:03.308Z,14.20
2022-09-18T04:57:33.329Z,14.20
2022-09-18T05:00:03.922Z,14.20
2022-09-18T05:02:36.591Z,14.20
2022-09-18T05:05:06.752Z,14.30
2022-09-18T05:07:37.017Z,14.30
2022-09-18T05:10:08.805Z,14.40
2022-09-18T05:12:38.783Z,14.40
2022-09-18T05:15:09.633Z,14.40
2022-09-18T05:17:42.668Z,14.40
2022-09-18T05:20:13.805Z,14.50
2022-09-18T05:22:48.316Z,14.40
2022-09-18T05:25:20.692Z,14.40
2022-09-18T05:27:57.138Z,14.40
2022-09-18T05:30:28.219Z,14.40
2022-09-18T05:33:02.640Z,14.40
2022-09-18T05:35:34.659Z,14.40
2022-09-18T05:38:05.244Z,14.50
2022-09-18T05:40:37.261Z,14.40
2022-09-18T05:43:08.118Z,14.50
2022-09-18T05:45:38.169Z,14.50
2022-09-18T05:48:12.357Z,14.50
2022-09-18T05:50:43.402Z,14.50
2022-09-18T05:53:15.329Z,14.50
2022-09-18T05:55:46.118Z,14.50
2022-09-18T05:58:18.587Z,14.40
2022-09-18T06:00:51.292Z,14.50
2022-09-18T06:03:24.038Z,14.40
2022-09-18T06:05:57.784Z,14.40
2022-09-18T06:08:27.772Z,14.40
2022-09-18T06:10:57.772Z,14.40
2022-09-18T06:13:28.047Z,14.50
2022-09-18T06:15:58.536Z,14.50
2022-09-18T06:18:31.415Z,14.50
2022-09-18T06:21:02.489Z,14.50
2022-09-18T06:23:32.774Z,14.50
2022-09-18T06:26:04.152Z,14.40
2022-09-18T06:28:34.890Z,14.40
2022-09-18T06:31:06.673Z,14.40
2022-09-18T06:33:39.452Z,14.30
2022-09-18T06:36:14.148Z,14.30
2022-09-18T06:38:44.193Z,14.30
2022-09-18T06:41:14.232Z,14.30
2022-09-18T06:43:44.401Z,14.40
2022-09-18T06:46:14.532Z,14.30
2022-09-18T06:48:47.393Z,14.30
2022-09-18T06:51:17.469Z,14.40
2022-09-18T06:53:47.581Z,14.40
2022-09-18T06:56:17.650Z,14.40
2022-09-18T06:58:48.154Z,14.50
2022-09-18T07:01:18.162Z,14.60
2022-09-18T07:03:51.332Z,14.60
2022-09-18T07:06:21.411Z,14.70
2022-09-18T07:08:51.389Z,14.70
2022-09-18T07:11:21.527Z,14.70
2022-09-18T07:13:53.369Z,14.60
2022-09-18T07:16:23.479Z,14.70
2022-09-18T07:18:56.268Z,14.70
2022-09-18T07:21:26.593Z,14.70
2022-09-18T07:23:56.642Z,14.70
2022-09-18T07:26:26.775Z,14.70
2022-09-18T07:28:56.885Z,14.80
2022-09-18T07:31:27.112Z,14.80
2022-09-18T07:33:59.902Z,14.80
2022-09-18T07:36:30.157Z,14.80
2022-09-18T07:39:00.353Z,14.70
2022-09-18T07:41:30.614Z,14.60
2022-09-18T07:44:00.711Z,14.60
2022-09-18T07:46:30.902Z,14.60
2022-09-18T07:49:03.893Z,14.60
2022-09-18T07:51:34.068Z,14.60
2022-09-18T07:54:04.340Z,14.60
2022-09-18T07:56:34.563Z,14.70
2022-09-18T07:59:04.748Z,14.60
2022-09-18T08:01:36.984Z,14.70
2022-09-18T08:04:10.204Z,14.70
2022-09-18T08:06:40.489Z,14.70
2022-09-18T08:09:11.249Z,14.70
2022-09-18T08:11:41.352Z,14.70
2022-09-18T08:14:12.491Z,14.60
2022-09-18T08:16:42.716Z,14.60
2022-09-18T08:19:15.781Z,14.60
2022-09-18T08:21:45.956Z,14.70
2022-09-18T08:24:17.705Z,14.60
2022-09-18T08:26:48.148Z,14.50
2022-09-18T08:29:19.435Z,14.50
2022-09-18T08:31:49.833Z,14.50
2022-09-18T08:34:22.686Z,14.50
2022-09-18T08:36:52.904Z,14.50
2022-09-18T08:39:23.246Z,14.50
2022-09-18T08:42:10.380Z,14.50
2022-09-18T08:44:48.654Z,14.50
2022-09-18T08:47:22.415Z,14.60
2022-09-18T08:49:58.304Z,14.70
2022-09-18T08:52:30.417Z,14.70
2022-09-18T08:55:05.321Z,14.80
2022-09-18T08:57:42.002Z,14.90
2022-09-18T09:00:20.084Z,15.00
2022-09-18T09:02:55.038Z,15.20
2022-09-18T09:05:32.105Z,15.30
2022-09-18T09:08:26.080Z,15.40
2022-09-18T09:11:04.075Z,15.50
2022-09-18T09:14:03.099Z,15.70
2022-09-18T09:16:44.437Z,15.80
2022-09-18T09:19:31.433Z,16.00
2022-09-18T09:22:16.586Z,16.10
2022-09-18T09:24:59.133Z,16.10
2022-09-18T09:27:35.146Z,16.10
2022-09-18T09:30:08.617Z,16.10
2022-09-18T09:32:43.320Z,16.00
2022-09-18T09:35:30.367Z,15.90
2022-09-18T09:38:08.045Z,16.00
2022-09-18T09:40:42.471Z,15.90
2022-09-18T09:43:29.611Z,15.90
2022-09-18T09:46:03.118Z,15.90
2022-09-18T09:48:41.208Z,15.90
2022-09-18T09:51:22.237Z,15.90
2022-09-18T09:53:56.137Z,15.90
2022-09-18T09:56:32.120Z,15.90
2022-09-18T09:59:08.682Z,15.90
2022-09-18T10:01:43.061Z,15.90
2022-09-18T10:04:25.284Z,15.90
2022-09-18T10:06:59.848Z,16.00
2022-09-18T10:09:41.797Z,16.10
2022-09-18T10:12:23.639Z,16.20
2022-09-18T10:14:55.985Z,16.30
2022-09-18T10:17:27.546Z,16.40
2022-09-18T10:19:57.779Z,16.50
2022-09-18T10:22:28.603Z,16.50
2022-09-18T10:25:06.724Z,16.60
2022-09-18T10:27:36.935Z,16.60
2022-09-18T10:30:14.986Z,16.60
2022-09-18T10:32:45.232Z,16.50
2022-09-18T10:35:44.559Z,16.60
2022-09-18T10:38:37.927Z,16.60
2022-09-18T10:41:30.580Z,16.60
2022-09-18T10:44:04.293Z,16.60
2022-09-18T10:46:37.486Z,16.60
2022-09-18T10:49:20.941Z,16.60
2022-09-18T10:51:50.974Z,16.50
2022-09-18T10:54:23.199Z,16.50
2022-09-18T10:56:56.596Z,16.40
2022-09-18T10:59:37.556Z,16.40
2022-09-18T11:02:16.568Z,16.50
2022-09-18T11:04:51.218Z,16.50
2022-09-18T11:07:25.684Z,16.40
2022-09-18T11:09:56.143Z,16.40
2022-09-18T11:12:30.417Z,16.30
2022-09-18T11:15:05.229Z,16.40
2022-09-18T11:17:38.110Z,16.30
2022-09-18T11:20:10.333Z,16.30
2022-09-18T11:22:44.673Z,16.30
2022-09-18T11:25:24.533Z,16.30
2022-09-18T11:27:58.627Z,16.30
2022-09-18T11:30:30.756Z,16.40
2022-09-18T11:33:03.243Z,16.40
2022-09-18T11:35:34.763Z,16.50
2022-09-18T11:38:09.095Z,16.60
2022-09-18T11:40:48.504Z,16.70
2022-09-18T11:43:26.554Z,16.80
2022-09-18T11:46:04.113Z,17.00
2022-09-18T11:48:38.507Z,17.20
2022-09-18T11:51:16.709Z,17.30
2022-09-18T11:53:52.149Z,17.30
2022-09-18T11:56:29.144Z,17.30
2022-09-18T11:59:07.206Z,17.20
2022-09-18T12:01:43.060Z,17.00
2022-09-18T12:04:19.437Z,16.90
2022-09-18T12:06:56.255Z,16.80
2022-09-18T12:09:30.510Z,16.70
2022-09-18T12:12:07.239Z,16.70
2022-09-18T12:14:46.009Z,16.70
2022-09-18T12:17:23.358Z,16.80
2022-09-18T12:19:58.039Z,16.80
2022-09-18T12:22:33.166Z,17.00
2022-09-18T12:25:03.399Z,17.20
2022-09-18T12:27:39.529Z,17.30
2022-09-18T12:30:18.082Z,17.40
2022-09-18T12:33:04.460Z,17.60
2022-09-18T12:35:45.376Z,17.60
2022-09-18T12:38:26.843Z,17.60
2022-09-18T12:41:14.347Z,17.60
2022-09-18T12:44:13.904Z,17.60
2022-09-18T12:47:01.760Z,17.70
2022-09-18T12:49:57.161Z,17.60
2022-09-18T12:53:00.280Z,17.50
2022-09-18T12:55:41.891Z,17.40
2022-09-18T12:58:26.089Z,17.20
2022-09-18T13:00:57.795Z,17.10
2022-09-18T13:03:36.009Z,16.90
2022-09-18T13:06:11.697Z,16.80
2022-09-18T13:08:47.751Z,16.60
2022-09-18T13:11:27.405Z,16.60
2022-09-18T13:14:04.735Z,16.50
2022-09-18T13:16:40.412Z,16.50
2022-09-18T13:19:20.943Z,16.40
2022-09-18T13:21:52.642Z,16.40
2022-09-18T13:24:26.895Z,16.40
2022-09-18T13:26:58.119Z,16.40
2022-09-18T13:29:50.565Z,16.40
2022-09-18T13:32:23.319Z,16.40
2022-09-18T13:34:58.610Z,16.40
2022-09-18T13:37:30.383Z,16.40
2022-09-18T13:40:10.721Z,16.40
2022-09-18T13:42:44.524Z,16.40
2022-09-18T13:45:22.411Z,16.40
2022-09-18T13:48:04.830Z,16.30
2022-09-18T13:50:39.198Z,16.30
2022-09-18T13:53:32.103Z,16.30
2022-09-18T13:56:02.426Z,16.30
2022-09-18T13:58:52.909Z,16.30
2022-09-18T14:01:37.704Z,16.30
2022-09-18T14:04:46.848Z,16.30
2022-09-18T14:07:48.596Z,16.30
2022-09-18T14:10:32.824Z,16.40
2022-09-18T14:13:34.282Z,16.40
2022-09-18T14:16:12.973Z,16.50
2022-09-18T14:19:05.308Z,16.50
2022-09-18T14:21:41.993Z,16.60
2022-09-18T14:24:58.132Z,16.60
2022-09-18T14:27:53.598Z,16.70
2022-09-18T14:30:26.962Z,16.70
2022-09-18T14:33:15.028Z,16.70
2022-09-18T14:35:58.872Z,16.60
2022-09-18T14:38:29.955Z,16.40
2022-09-18T14:41:09.096Z,16.20
2022-09-18T14:43:50.460Z,16.00
2022-09-18T14:46:22.731Z,15.80
2022-09-18T14:48:53.282Z,15.70
2022-09-18T14:51:25.662Z,15.70
2022-09-18T14:53:57.644Z,15.70
2022-09-18T14:56:31.552Z,15.80
2022-09-18T14:59:08.451Z,15.80
2022-09-18T15:01:40.940Z,15.80
2022-09-18T15:04:18.073Z,15.80
2022-09-18T15:06:50.367Z,15.70
2022-09-18T15:09:28.698Z,15.70
2022-09-18T15:12:04.056Z,15.70
2022-09-18T15:14:45.454Z,15.70
2022-09-18T15:17:22.141Z,15.60
2022-09-18T15:19:59.693Z,15.60
2022-09-18T15:22:31.149Z,15.70
2022-09-18T15:25:02.141Z,15.70
2022-09-18T15:27:33.050Z,15.70
2022-09-18T15:30:08.169Z,15.80
2022-09-18T15:32:43.615Z,15.80
2022-09-18T15:35:21.622Z,15.80
2022-09-18T15:38:02.137Z,15.80
2022-09-18T15:40:35.608Z,15.90
2022-09-18T15:43:08.392Z,15.90
2022-09-18T15:45:41.719Z,16.00
2022-09-18T15:48:37.350Z,15.90
2022-09-18T15:51:12.662Z,16.00
2022-09-18T15:53:42.971Z,16.00
2022-09-18T15:56:22.625Z,16.00
2022-09-18T15:58:58.888Z,16.00
2022-09-18T16:01:37.140Z,16.00
2022-09-18T16:04:20.468Z,16.00
2022-09-18T16:06:57.000Z,15.90
2022-09-18T16:09:37.888Z,15.70
2022-09-18T16:12:36.912Z,15.50
2022-09-18T16:15:23.294Z,15.60
2022-09-18T16:18:24.425Z,15.40
2022-09-18T16:21:09.006Z,15.40
2022-09-18T16:23:50.586Z,15.20
2022-09-18T16:26:33.166Z,15.10
2022-09-18T16:29:05.310Z,15.20
2022-09-18T16:31:37.669Z,15.20
2022-09-18T16:34:24.280Z,15.20
2022-09-18T16:36:55.383Z,15.00
2022-09-18T16:39:27.982Z,15.00
2022-09-18T16:41:58.090Z,15.00
2022-09-18T16:44:28.212Z,14.90
2022-09-18T16:47:04.246Z,14.80
2022-09-18T16:49:40.136Z,14.90
2022-09-18T16:52:10.326Z,14.90
2022-09-18T16:54:40.440Z,14.90
2022-09-18T16:57:15.786Z,14.80
2022-09-18T16:59:46.343Z,14.90
2022-09-18T17:02:19.157Z,14.90
2022-09-18T17:04:52.071Z,15.00
2022-09-18T17:07:22.499Z,15.00
2022-09-18T17:09:52.667Z,15.00
2022-09-18T17:12:22.914Z,15.00
2022-09-18T17:14:53.598Z,15.00
2022-09-18T17:17:24.015Z,15.00
2022-09-18T17:19:56.790Z,15.00
2022-09-18T17:22:27.043Z,15.00
2022-09-18T17:24:57.187Z,15.00
2022-09-18T17:27:27.717Z,15.00
2022-09-18T17:29:57.887Z,15.00
2022-09-18T17:32:29.616Z,14.90
2022-09-18T17:35:02.527Z,14.70
2022-09-18T17:37:34.140Z,14.60
2022-09-18T17:40:04.894Z,14.50
2022-09-18T17:42:35.217Z,14.50
2022-09-18T17:45:05.344Z,14.50
2022-09-18T17:47:35.582Z,14.50
2022-09-18T17:50:09.389Z,14.50
2022-09-18T17:52:40.215Z,14.50
2022-09-18T17:55:13.092Z,14.40
2022-09-18T17:57:44.199Z,14.40
2022-09-18T18:00:15.265Z,14.30
2022-09-18T18:02:45.523Z,14.30
2022-09-18T18:05:18.368Z,14.30
2022-09-18T18:07:48.743Z,14.40
2022-09-18T18:10:19.048Z,14.40
2022-09-18T18:12:52.383Z,14.40
2022-09-18T18:15:22.671Z,14.40
2022-09-18T18:17:53.653Z,14.50
2022-09-18T18:20:26.269Z,14.50
2022-09-18T18:22:56.468Z,14.40
2022-09-18T18:25:27.462Z,14.40
2022-09-18T18:27:58.327Z,14.40
2022-09-18T18:30:28.626Z,14.40
2022-09-18T18:32:58.947Z,14.40
2022-09-18T18:35:31.824Z,14.40
2022-09-18T18:38:02.092Z,14.50
2022-09-18T18:40:32.450Z,14.50
2022-09-18T18:43:03.763Z,14.50
2022-09-18T18:45:37.666Z,14.40
2022-09-18T18:48:09.926Z,14.40
2022-09-18T18:50:49.495Z,14.40
2022-09-18T18:53:20.094Z,14.40
2022-09-18T18:55:51.660Z,14.40
2022-09-18T18:58:22.693Z,14.40
2022-09-18T19:00:52.919Z,14.40
2022-09-18T19:03:23.204Z,13.20
2022-09-18T19:05:56.206Z,14.40
2022-09-18T19:08:27.564Z,14.40
2022-09-18T19:11:01.887Z,14.40
2022-09-18T19:13:41.576Z,14.40
2022-09-18T19:16:13.347Z,14.40
2022-09-18T19:18:44.178Z,14.40
2022-09-18T19:21:17.002Z,14.40
2022-09-18T19:23:50.522Z,14.30
2022-09-18T19:26:21.424Z,14.30
2022-09-18T19:28:55.672Z,14.30
2022-09-18T19:31:27.132Z,14.30
2022-09-18T19:33:58.301Z,14.30
2022-09-18T19:36:32.974Z,14.30
2022-09-18T19:39:04.717Z,14.30
2022-09-18T19:41:41.370Z,14.30
2022-09-18T19:44:18.377Z,14.30
2022-09-18T19:46:49.173Z,14.30
2022-09-18T19:49:22.497Z,14.30
2022-09-18T19:51:55.938Z,14.20
2022-09-18T19:54:26.210Z,14.20
2022-09-18T19:56:57.343Z,14.10
2022-09-18T19:59:27.919Z,14.10
2022-09-18T20:01:58.513Z,14.00
2022-09-18T20:04:28.791Z,14.00
2022-09-18T20:07:01.628Z,14.00
2022-09-18T20:09:32.010Z,13.90
2022-09-18T20:12:02.666Z,13.90
2022-09-18T20:14:32.848Z,13.80
2022-09-18T20:17:03.166Z,13.80
2022-09-18T20:19:34.136Z,13.80
2022-09-18T20:22:07.916Z,13.80
2022-09-18T20:24:38.112Z,13.80
2022-09-18T20:27:08.616Z,13.70
2022-09-18T20:29:38.986Z,13.60
2022-09-18T20:32:09.294Z,13.60
2022-09-18T20:34:39.510Z,13.50
2022-09-18T20:37:13.028Z,13.50
2022-09-18T20:39:43.362Z,13.60
2022-09-18T20:42:13.511Z,13.60
2022-09-18T20:44:43.668Z,13.50
2022-09-18T20:47:13.814Z,13.50
2022-09-18T20:49:46.267Z,13.50
2022-09-18T20:52:19.044Z,13.40
2022-09-18T20:54:53.059Z,13.40
2022-09-18T20:57:23.298Z,13.40
2022-09-18T20:59:54.171Z,13.40
2022-09-18T21:02:25.374Z,13.40
2022-09-18T21:04:56.257Z,13.40
2022-09-18T21:07:29.021Z,13.30
2022-09-18T21:09:59.197Z,13.30
2022-09-18T21:12:37.542Z,13.30
2022-09-18T21:15:09.958Z,13.30
2022-09-18T21:17:40.573Z,13.30
2022-09-18T21:20:12.365Z,13.30
2022-09-18T21:23:00.527Z,13.30
2022-09-18T21:25:33.289Z,13.20
2022-09-18T21:28:06.140Z,13.20
2022-09-18T21:30:36.509Z,13.20
2022-09-18T21:33:10.813Z,13.10
2022-09-18T21:35:42.769Z,13.10
2022-09-18T21:38:15.992Z,13.00
2022-09-18T21:40:46.328Z,13.00
2022-09-18T21:43:17.357Z,12.90
2022-09-18T21:45:47.259Z,12.80
2022-09-18T21:48:18.093Z,12.80
2022-09-18T21:50:48.725Z,12.80
2022-09-18T21:53:21.517Z,12.80
2022-09-18T21:55:51.750Z,12.90
2022-09-18T21:58:22.151Z,12.90
2022-09-18T22:00:52.666Z,12.90
2022-09-18T22:03:23.020Z,12.90
2022-09-18T22:05:53.203Z,12.90
2022-09-18T22:08:26.157Z,12.80
2022-09-18T22:10:56.724Z,12.80
2022-09-18T22:13:26.974Z,12.80
2022-09-18T22:15:58.201Z,12.80
2022-09-18T22:18:28.439Z,12.80
2022-09-18T22:20:59.419Z,12.70
2022-09-18T22:23:32.202Z,12.80
2022-09-18T22:26:07.202Z,12.70
2022-09-18T22:28:37.309Z,12.70
2022-09-18T22:31:07.902Z,12.60
2022-09-18T22:33:38.228Z,12.60
2022-09-18T22:36:09.178Z,12.50
2022-09-18T22:38:41.967Z,12.50
2022-09-18T22:41:12.972Z,12.40
2022-09-18T22:43:43.089Z,12.40
2022-09-18T22:46:15.390Z,12.30
2022-09-18T22:48:46.133Z,12.30
2022-09-18T22:51:18.557Z,12.20
2022-09-18T22:53:55.025Z,12.10
2022-09-18T22:56:26.220Z,12.10
2022-09-18T22:58:57.330Z,12.10
2022-09-18T23:01:29.182Z,12.10
2022-09-18T23:04:00.092Z,12.10
2022-09-18T23:06:30.830Z,12.10
2022-09-18T23:09:04.895Z,12.10
2022-09-18T23:11:37.212Z,12.10
2022-09-18T23:14:09.939Z,12.10
2022-09-18T23:16:40.629Z,12.10
2022-09-18T23:19:15.596Z,12.10
2022-09-18T23:21:45.874Z,12.10
2022-09-18T23:24:18.987Z,12.10
2022-09-18T23:26:50.727Z,12.10
2022-09-18T23:29:22.579Z,12.10
2022-09-18T23:31:57.553Z,12.00
2022-09-18T23:34:30.781Z,12.00
2022-09-18T23:37:01.331Z,12.10
2022-09-18T23:39:35.558Z,12.10
2022-09-18T23:42:09.012Z,12.10
2022-09-18T23:44:39.195Z,12.10
2022-09-18T23:47:09.596Z,12.10
2022-09-18T23:49:39.686Z,12.20
2022-09-18T23:52:09.887Z,12.20
2022-09-18T23:54:42.621Z,12.20
2022-09-18T23:57:13.023Z,12.30
2022-09-18T23:59:43.291Z,12.50
